SAV387B LIPQ-EGGD
Flight info
| Callsign | SAV387B |
|---|---|
| Flight time | 2h 2m |
| Altitude | 34000 |
| Route | LUPIN DCT SOTOV DCT KPT L608 DENUT L610 KOPUL Q63 ICTAM |
| Aircraft | B788/H-SDE1E2E3FGHIJ2J3J4J5M1RWXY/LB1D1 |
Departure
| Time | 2026-04-15 11:04 |
|---|---|
| Airport | Trieste Airport (LIPQ) |
Arrival
| Time | 2026-04-15 13:06 |
|---|---|
| Airport | Bristol Airport (EGGD) |
| Time | Latitude | Longitude | Altitude | Speed | Heading |
|---|---|---|---|---|---|
| 2026-04-15 10:48 | 45.82210 | 13.48478 | 53 ft | 0 kts | 171° |
| 2026-04-15 10:52 | 45.82222 | 13.48475 | 47 ft | 2 kts | 168° |
| 2026-04-15 10:52 | 45.82238 | 13.48469 | 45 ft | 2 kts | 164° |
| 2026-04-15 10:53 | 45.82254 | 13.48461 | 45 ft | 2 kts | 155° |
| 2026-04-15 10:53 | 45.82267 | 13.48447 | 45 ft | 2 kts | 131° |
| 2026-04-15 10:53 | 45.82272 | 13.48425 | 45 ft | 2 kts | 92° |
| 2026-04-15 10:53 | 45.82271 | 13.48420 | 45 ft | 0 kts | 87° |
| 2026-04-15 10:55 | 45.82272 | 13.48426 | 45 ft | 2 kts | 86° |
| 2026-04-15 10:55 | 45.82275 | 13.48453 | 45 ft | 3 kts | 79° |
| 2026-04-15 10:56 | 45.82279 | 13.48491 | 46 ft | 4 kts | 79° |
| 2026-04-15 10:56 | 45.82290 | 13.48536 | 51 ft | 5 kts | 58° |
| 2026-04-15 10:56 | 45.82314 | 13.48563 | 53 ft | 5 kts | 23° |
| 2026-04-15 10:56 | 45.82348 | 13.48572 | 53 ft | 5 kts | 1° |
| 2026-04-15 10:57 | 45.82390 | 13.48573 | 53 ft | 7 kts | 0° |
| 2026-04-15 10:57 | 45.82522 | 13.48574 | 49 ft | 12 kts | 0° |
| 2026-04-15 10:57 | 45.82597 | 13.48541 | 48 ft | 12 kts | 303° |
| 2026-04-15 10:58 | 45.82610 | 13.48416 | 47 ft | 14 kts | 270° |
| 2026-04-15 10:58 | 45.82610 | 13.48262 | 47 ft | 17 kts | 271° |
| 2026-04-15 10:58 | 45.82612 | 13.48084 | 53 ft | 19 kts | 271° |
| 2026-04-15 10:58 | 45.82612 | 13.47886 | 53 ft | 21 kts | 270° |
| 2026-04-15 10:59 | 45.82614 | 13.47668 | 53 ft | 23 kts | 270° |
| 2026-04-15 10:59 | 45.82615 | 13.47434 | 50 ft | 24 kts | 270° |
| 2026-04-15 10:59 | 45.82616 | 13.47186 | 52 ft | 26 kts | 270° |
| 2026-04-15 10:59 | 45.82617 | 13.46919 | 49 ft | 28 kts | 270° |
| 2026-04-15 11:00 | 45.82618 | 13.46638 | 49 ft | 29 kts | 270° |
| 2026-04-15 11:00 | 45.82620 | 13.46343 | 48 ft | 30 kts | 270° |
| 2026-04-15 11:00 | 45.82620 | 13.46038 | 49 ft | 31 kts | 270° |
| 2026-04-15 11:00 | 45.82621 | 13.45794 | 48 ft | 18 kts | 272° |
| 2026-04-15 11:01 | 45.82628 | 13.45620 | 48 ft | 15 kts | 297° |
| 2026-04-15 11:01 | 45.82714 | 13.45584 | 50 ft | 14 kts | 359° |
| 2026-04-15 11:01 | 45.82788 | 13.45518 | 51 ft | 14 kts | 285° |
| 2026-04-15 11:01 | 45.82794 | 13.45367 | 54 ft | 16 kts | 270° |
| 2026-04-15 11:02 | 45.82795 | 13.45198 | 54 ft | 18 kts | 270° |
| 2026-04-15 11:02 | 45.82796 | 13.45003 | 49 ft | 19 kts | 270° |
| 2026-04-15 11:02 | 45.82777 | 13.44868 | 49 ft | 13 kts | 232° |
| 2026-04-15 11:02 | 45.82766 | 13.44765 | 51 ft | 7 kts | 325° |
| 2026-04-15 11:03 | 45.82794 | 13.44773 | 48 ft | 4 kts | 56° |
| 2026-04-15 11:03 | 45.82796 | 13.44829 | 46 ft | 7 kts | 91° |
| 2026-04-15 11:03 | 45.82796 | 13.44846 | 50 ft | 0 kts | 90° |
| 2026-04-15 11:03 | 45.82796 | 13.44941 | 47 ft | 36 kts | 90° |
| 2026-04-15 11:04 | 45.82789 | 13.45722 | 55 ft | 119 kts | 91° |
| 2026-04-15 11:04 | 45.82788 | 13.47197 | 373 ft | 166 kts | 95° |
| 2026-04-15 11:04 | 45.82784 | 13.48975 | 1191 ft | 191 kts | 90° |
| 2026-04-15 11:04 | 45.82296 | 13.50790 | 2118 ft | 205 kts | 133° |
| 2026-04-15 11:05 | 45.80963 | 13.51505 | 3195 ft | 217 kts | 176° |
| 2026-04-15 11:05 | 45.79524 | 13.50808 | 4208 ft | 224 kts | 211° |
| 2026-04-15 11:05 | 45.78601 | 13.49022 | 5282 ft | 230 kts | 251° |
| 2026-04-15 11:05 | 45.78659 | 13.46730 | 6264 ft | 239 kts | 291° |
| 2026-04-15 11:06 | 45.79751 | 13.44938 | 7179 ft | 244 kts | 327° |
| 2026-04-15 11:06 | 45.81240 | 13.43817 | 8082 ft | 246 kts | 334° |
| 2026-04-15 11:06 | 45.82548 | 13.42234 | 8941 ft | 249 kts | 298° |
| 2026-04-15 11:06 | 45.83264 | 13.39958 | 9796 ft | 254 kts | 296° |
| 2026-04-15 11:07 | 45.84244 | 13.37836 | 10615 ft | 258 kts | 314° |
| 2026-04-15 11:07 | 45.85811 | 13.36693 | 11441 ft | 256 kts | 355° |
| 2026-04-15 11:07 | 45.87559 | 13.37002 | 12231 ft | 255 kts | 20° |
| 2026-04-15 11:07 | 45.89245 | 13.37818 | 13080 ft | 257 kts | 19° |
| 2026-04-15 11:08 | 45.90998 | 13.38464 | 13919 ft | 262 kts | 14° |
| 2026-04-15 11:08 | 45.92800 | 13.38940 | 14645 ft | 265 kts | 12° |
| 2026-04-15 11:08 | 45.94637 | 13.39431 | 15085 ft | 282 kts | 13° |
| 2026-04-15 11:08 | 45.96655 | 13.40031 | 15215 ft | 307 kts | 14° |
| 2026-04-15 11:09 | 45.98706 | 13.40325 | 15208 ft | 296 kts | 354° |
| 2026-04-15 11:09 | 46.00740 | 13.39394 | 15269 ft | 324 kts | 328° |
| 2026-04-15 11:09 | 46.02431 | 13.37112 | 15393 ft | 348 kts | 305° |
| 2026-04-15 11:09 | 46.03828 | 13.34103 | 15444 ft | 373 kts | 301° |
| 2026-04-15 11:10 | 46.05207 | 13.30814 | 15693 ft | 389 kts | 300° |
| 2026-04-15 11:10 | 46.06628 | 13.27502 | 16419 ft | 391 kts | 302° |
| 2026-04-15 11:10 | 46.08101 | 13.24226 | 17031 ft | 395 kts | 302° |
| 2026-04-15 11:10 | 46.09599 | 13.20877 | 17645 ft | 399 kts | 301° |
| 2026-04-15 11:11 | 46.11087 | 13.17469 | 18242 ft | 403 kts | 301° |
| 2026-04-15 11:11 | 46.12583 | 13.14032 | 18831 ft | 406 kts | 301° |
| 2026-04-15 11:11 | 46.14105 | 13.10568 | 19362 ft | 408 kts | 301° |
| 2026-04-15 11:11 | 46.15634 | 13.07093 | 19888 ft | 411 kts | 301° |
| 2026-04-15 11:12 | 46.17140 | 13.03650 | 20404 ft | 413 kts | 301° |
| 2026-04-15 11:12 | 46.18659 | 13.00164 | 20918 ft | 415 kts | 301° |
| 2026-04-15 11:12 | 46.20224 | 12.96577 | 21382 ft | 418 kts | 301° |
| 2026-04-15 11:12 | 46.21778 | 12.93015 | 21852 ft | 421 kts | 301° |
| 2026-04-15 11:13 | 46.23341 | 12.89424 | 22315 ft | 423 kts | 301° |
| 2026-04-15 11:13 | 46.24910 | 12.85813 | 22757 ft | 426 kts | 301° |
| 2026-04-15 11:13 | 46.26489 | 12.82173 | 23184 ft | 428 kts | 301° |
| 2026-04-15 11:13 | 46.28078 | 12.78511 | 23575 ft | 431 kts | 301° |
| 2026-04-15 11:14 | 46.29678 | 12.74817 | 23938 ft | 433 kts | 301° |
| 2026-04-15 11:14 | 46.31257 | 12.71164 | 24260 ft | 435 kts | 301° |
| 2026-04-15 11:14 | 46.32866 | 12.67437 | 24581 ft | 437 kts | 301° |
| 2026-04-15 11:14 | 46.34479 | 12.63696 | 24903 ft | 439 kts | 301° |
| 2026-04-15 11:15 | 46.36102 | 12.59929 | 25202 ft | 441 kts | 301° |
| 2026-04-15 11:15 | 46.37730 | 12.56144 | 25510 ft | 442 kts | 301° |
| 2026-04-15 11:15 | 46.39357 | 12.52353 | 25805 ft | 444 kts | 301° |
| 2026-04-15 11:15 | 46.40975 | 12.48581 | 26109 ft | 445 kts | 301° |
| 2026-04-15 11:16 | 46.42617 | 12.44749 | 26398 ft | 447 kts | 301° |
| 2026-04-15 11:16 | 46.44258 | 12.40912 | 26710 ft | 448 kts | 301° |
| 2026-04-15 11:16 | 46.45906 | 12.37054 | 27004 ft | 450 kts | 301° |
| 2026-04-15 11:16 | 46.47558 | 12.33181 | 27288 ft | 452 kts | 301° |
| 2026-04-15 11:17 | 46.49214 | 12.29291 | 27557 ft | 453 kts | 301° |
| 2026-04-15 11:17 | 46.50874 | 12.25390 | 27860 ft | 455 kts | 301° |
| 2026-04-15 11:17 | 46.52538 | 12.21471 | 28138 ft | 456 kts | 301° |
| 2026-04-15 11:17 | 46.54201 | 12.17554 | 28510 ft | 454 kts | 301° |
| 2026-04-15 11:18 | 46.55852 | 12.13653 | 28898 ft | 453 kts | 301° |
| 2026-04-15 11:18 | 46.57478 | 12.09808 | 29278 ft | 451 kts | 301° |
| 2026-04-15 11:18 | 46.59123 | 12.05915 | 29632 ft | 450 kts | 301° |
| 2026-04-15 11:18 | 46.60762 | 12.02028 | 30029 ft | 449 kts | 301° |
| 2026-04-15 11:19 | 46.62390 | 11.98162 | 30387 ft | 448 kts | 301° |
| 2026-04-15 11:19 | 46.64010 | 11.94309 | 30699 ft | 447 kts | 301° |
| 2026-04-15 11:19 | 46.65635 | 11.90441 | 30984 ft | 446 kts | 301° |
| 2026-04-15 11:19 | 46.67248 | 11.86596 | 31307 ft | 445 kts | 301° |
| 2026-04-15 11:20 | 46.68784 | 11.82927 | 31574 ft | 444 kts | 301° |
| 2026-04-15 11:20 | 46.70394 | 11.79079 | 31893 ft | 443 kts | 301° |
| 2026-04-15 11:20 | 46.71996 | 11.75243 | 32209 ft | 442 kts | 301° |
| 2026-04-15 11:20 | 46.73597 | 11.71404 | 32524 ft | 442 kts | 301° |
| 2026-04-15 11:21 | 46.75192 | 11.67574 | 32829 ft | 441 kts | 301° |
| 2026-04-15 11:21 | 46.76782 | 11.63752 | 33164 ft | 440 kts | 302° |
| 2026-04-15 11:21 | 46.78369 | 11.59931 | 33493 ft | 439 kts | 302° |
| 2026-04-15 11:21 | 46.79950 | 11.56119 | 33819 ft | 438 kts | 302° |
| 2026-04-15 11:22 | 46.81521 | 11.52325 | 34142 ft | 437 kts | 302° |
| 2026-04-15 11:22 | 46.83104 | 11.48497 | 34162 ft | 441 kts | 302° |
| 2026-04-15 11:22 | 46.86246 | 11.40887 | 34160 ft | 436 kts | 302° |
| 2026-04-15 11:23 | 46.89373 | 11.33290 | 34163 ft | 435 kts | 302° |
| 2026-04-15 11:23 | 46.92483 | 11.25715 | 34164 ft | 434 kts | 302° |
| 2026-04-15 11:24 | 46.94167 | 11.22056 | 34195 ft | 431 kts | 313° |
| 2026-04-15 11:24 | 46.96320 | 11.19042 | 34197 ft | 428 kts | 325° |
| 2026-04-15 11:24 | 47.01127 | 11.13943 | 34185 ft | 429 kts | 326° |
| 2026-04-15 11:25 | 47.05966 | 11.08840 | 34182 ft | 427 kts | 325° |
| 2026-04-15 11:25 | 47.10784 | 11.03724 | 34187 ft | 426 kts | 326° |
| 2026-04-15 11:26 | 47.15574 | 10.98639 | 34174 ft | 424 kts | 326° |
| 2026-04-15 11:26 | 47.20320 | 10.93583 | 34168 ft | 423 kts | 326° |
| 2026-04-15 11:27 | 47.25030 | 10.88559 | 34164 ft | 422 kts | 326° |
| 2026-04-15 11:27 | 47.29786 | 10.83471 | 34158 ft | 423 kts | 326° |
| 2026-04-15 11:28 | 47.34546 | 10.78368 | 34147 ft | 422 kts | 326° |
| 2026-04-15 11:28 | 47.39300 | 10.73260 | 34149 ft | 422 kts | 326° |
| 2026-04-15 11:29 | 47.44042 | 10.68153 | 34154 ft | 421 kts | 326° |
| 2026-04-15 11:29 | 47.48738 | 10.63084 | 34156 ft | 420 kts | 326° |
| 2026-04-15 11:30 | 47.53457 | 10.57978 | 34164 ft | 420 kts | 326° |
| 2026-04-15 11:30 | 47.58175 | 10.52863 | 34174 ft | 419 kts | 326° |
| 2026-04-15 11:31 | 47.62878 | 10.47751 | 34179 ft | 418 kts | 326° |
| 2026-04-15 11:31 | 47.67536 | 10.42678 | 34186 ft | 417 kts | 326° |
| 2026-04-15 11:32 | 47.72216 | 10.37568 | 34191 ft | 416 kts | 326° |
| 2026-04-15 11:32 | 47.76688 | 10.32406 | 34208 ft | 417 kts | 323° |
| 2026-04-15 11:33 | 47.81186 | 10.26954 | 34203 ft | 417 kts | 323° |
| 2026-04-15 11:33 | 47.85681 | 10.21463 | 34202 ft | 417 kts | 323° |
| 2026-04-15 11:34 | 47.90167 | 10.15981 | 34205 ft | 417 kts | 323° |
| 2026-04-15 11:34 | 47.94649 | 10.10489 | 34205 ft | 417 kts | 323° |
| 2026-04-15 11:35 | 47.99106 | 10.05014 | 34205 ft | 417 kts | 323° |
| 2026-04-15 11:35 | 48.03581 | 9.99506 | 34202 ft | 417 kts | 323° |
| 2026-04-15 11:36 | 48.08058 | 9.93980 | 34221 ft | 417 kts | 323° |
| 2026-04-15 11:36 | 48.11787 | 9.89370 | 34215 ft | 418 kts | 323° |
| 2026-04-15 11:37 | 48.16997 | 9.82911 | 34199 ft | 417 kts | 322° |
| 2026-04-15 11:37 | 48.20743 | 9.78257 | 34203 ft | 417 kts | 322° |
| 2026-04-15 11:38 | 48.25181 | 9.72732 | 34209 ft | 417 kts | 322° |
| 2026-04-15 11:38 | 48.29644 | 9.67162 | 34205 ft | 417 kts | 322° |
| 2026-04-15 11:39 | 48.34112 | 9.61573 | 34204 ft | 417 kts | 322° |
| 2026-04-15 11:39 | 48.38542 | 9.55909 | 34203 ft | 418 kts | 321° |
| 2026-04-15 11:40 | 48.42971 | 9.50235 | 34208 ft | 418 kts | 322° |
| 2026-04-15 11:40 | 48.47377 | 9.44585 | 34209 ft | 418 kts | 321° |
| 2026-04-15 11:41 | 48.51805 | 9.38884 | 34206 ft | 417 kts | 321° |
| 2026-04-15 11:41 | 48.56228 | 9.33183 | 34209 ft | 418 kts | 321° |
| 2026-04-15 11:42 | 48.60659 | 9.27485 | 34210 ft | 417 kts | 324° |
| 2026-04-15 11:42 | 48.63096 | 9.25146 | 34225 ft | 415 kts | 335° |
| 2026-04-15 11:42 | 48.65732 | 9.23359 | 34221 ft | 415 kts | 337° |
| 2026-04-15 11:43 | 48.70985 | 9.19886 | 34214 ft | 414 kts | 337° |
| 2026-04-15 11:43 | 48.76173 | 9.16449 | 34203 ft | 397 kts | 338° |
| 2026-04-15 11:44 | 48.81276 | 9.13066 | 34221 ft | 405 kts | 338° |
| 2026-04-15 11:44 | 48.86449 | 9.09623 | 34226 ft | 406 kts | 338° |
| 2026-04-15 11:45 | 48.91584 | 9.06147 | 34221 ft | 406 kts | 336° |
| 2026-04-15 11:45 | 48.96719 | 9.02543 | 34226 ft | 406 kts | 336° |
| 2026-04-15 11:46 | 49.01826 | 8.99019 | 34226 ft | 407 kts | 336° |
| 2026-04-15 11:46 | 49.06976 | 8.95422 | 34228 ft | 407 kts | 336° |
| 2026-04-15 11:47 | 49.12107 | 8.91846 | 34229 ft | 407 kts | 336° |
| 2026-04-15 11:47 | 49.17220 | 8.88268 | 34229 ft | 406 kts | 336° |
| 2026-04-15 11:48 | 49.22494 | 8.85149 | 34233 ft | 406 kts | 342° |
| 2026-04-15 11:48 | 49.27858 | 8.82524 | 34241 ft | 406 kts | 342° |
| 2026-04-15 11:49 | 49.33140 | 8.79950 | 34243 ft | 407 kts | 342° |
| 2026-04-15 11:49 | 49.38546 | 8.77306 | 34240 ft | 407 kts | 342° |
| 2026-04-15 11:50 | 49.43950 | 8.74657 | 34244 ft | 407 kts | 342° |
| 2026-04-15 11:50 | 49.49352 | 8.72003 | 34246 ft | 408 kts | 342° |
| 2026-04-15 11:51 | 49.54737 | 8.69351 | 34247 ft | 408 kts | 342° |
| 2026-04-15 11:51 | 49.60156 | 8.66676 | 34244 ft | 408 kts | 342° |
| 2026-04-15 11:52 | 49.65577 | 8.63994 | 34245 ft | 408 kts | 341° |
| 2026-04-15 11:52 | 49.70422 | 8.61345 | 34257 ft | 408 kts | 333° |
| 2026-04-15 11:53 | 49.75004 | 8.56279 | 34251 ft | 410 kts | 318° |
| 2026-04-15 11:53 | 49.79163 | 8.50250 | 34249 ft | 410 kts | 318° |
| 2026-04-15 11:54 | 49.83235 | 8.44067 | 34255 ft | 411 kts | 310° |
| 2026-04-15 11:54 | 49.86033 | 8.36475 | 34261 ft | 416 kts | 291° |
| 2026-04-15 11:55 | 49.87849 | 8.27933 | 34255 ft | 416 kts | 291° |
| 2026-04-15 11:55 | 49.89636 | 8.19399 | 34257 ft | 416 kts | 290° |
| 2026-04-15 11:56 | 49.91408 | 8.10922 | 34253 ft | 415 kts | 290° |
| 2026-04-15 11:56 | 49.93180 | 8.02401 | 34252 ft | 415 kts | 290° |
| 2026-04-15 11:57 | 49.95061 | 7.89302 | 34252 ft | 419 kts | 280° |
| 2026-04-15 11:58 | 49.95780 | 7.80315 | 34247 ft | 419 kts | 280° |
| 2026-04-15 11:58 | 49.96493 | 7.71339 | 34236 ft | 419 kts | 279° |
| 2026-04-15 11:59 | 49.97197 | 7.62361 | 34225 ft | 419 kts | 279° |
| 2026-04-15 11:59 | 49.97890 | 7.53438 | 34221 ft | 418 kts | 279° |
| 2026-04-15 12:00 | 49.98580 | 7.44466 | 34210 ft | 418 kts | 279° |
| 2026-04-15 12:00 | 49.99263 | 7.35493 | 34207 ft | 418 kts | 279° |
| 2026-04-15 12:01 | 49.99940 | 7.26508 | 34207 ft | 419 kts | 279° |
| 2026-04-15 12:01 | 50.00610 | 7.17521 | 34207 ft | 418 kts | 278° |
| 2026-04-15 12:02 | 50.01273 | 7.08523 | 34207 ft | 418 kts | 278° |
| 2026-04-15 12:02 | 50.01927 | 6.99566 | 34204 ft | 417 kts | 278° |
| 2026-04-15 12:03 | 50.02910 | 6.90701 | 34228 ft | 414 kts | 291° |
| 2026-04-15 12:03 | 50.05447 | 6.82738 | 34218 ft | 413 kts | 299° |
| 2026-04-15 12:04 | 50.08230 | 6.74903 | 34210 ft | 414 kts | 299° |
| 2026-04-15 12:04 | 50.11011 | 6.67064 | 34211 ft | 413 kts | 299° |
| 2026-04-15 12:05 | 50.13783 | 6.59216 | 34214 ft | 413 kts | 299° |
| 2026-04-15 12:05 | 50.16555 | 6.51349 | 34209 ft | 414 kts | 298° |
| 2026-04-15 12:06 | 50.19830 | 6.43994 | 34221 ft | 415 kts | 315° |
| 2026-04-15 12:06 | 50.24213 | 6.38166 | 34212 ft | 417 kts | 319° |
| 2026-04-15 12:07 | 50.28677 | 6.32388 | 34208 ft | 416 kts | 319° |
| 2026-04-15 12:07 | 50.33132 | 6.26598 | 34210 ft | 416 kts | 319° |
| 2026-04-15 12:08 | 50.37591 | 6.20793 | 34209 ft | 417 kts | 318° |
| 2026-04-15 12:08 | 50.42050 | 6.14970 | 34208 ft | 416 kts | 318° |
| 2026-04-15 12:09 | 50.46476 | 6.09176 | 34212 ft | 417 kts | 318° |
| 2026-04-15 12:09 | 50.50942 | 6.03316 | 34205 ft | 418 kts | 318° |
| 2026-04-15 12:10 | 50.55405 | 5.97444 | 34203 ft | 419 kts | 318° |
| 2026-04-15 12:10 | 50.59880 | 5.91543 | 34202 ft | 419 kts | 318° |
| 2026-04-15 12:11 | 50.63961 | 5.85150 | 34212 ft | 416 kts | 303° |
| 2026-04-15 12:11 | 50.65404 | 5.81212 | 34208 ft | 415 kts | 292° |
| 2026-04-15 12:11 | 50.66366 | 5.76906 | 34203 ft | 415 kts | 285° |
| 2026-04-15 12:12 | 50.67965 | 5.68159 | 34197 ft | 415 kts | 285° |
| 2026-04-15 12:12 | 50.69703 | 5.59474 | 34196 ft | 415 kts | 286° |
| 2026-04-15 12:13 | 50.71424 | 5.50811 | 34196 ft | 415 kts | 287° |
| 2026-04-15 12:13 | 50.73183 | 5.42126 | 34197 ft | 415 kts | 286° |
| 2026-04-15 12:14 | 50.74919 | 5.33405 | 34196 ft | 415 kts | 286° |
| 2026-04-15 12:14 | 50.76654 | 5.24710 | 34193 ft | 415 kts | 286° |
| 2026-04-15 12:15 | 50.78365 | 5.16069 | 34192 ft | 414 kts | 286° |
| 2026-04-15 12:15 | 50.80082 | 5.07367 | 34188 ft | 414 kts | 285° |
| 2026-04-15 12:16 | 50.81773 | 4.98659 | 34188 ft | 414 kts | 285° |
| 2026-04-15 12:16 | 50.83420 | 4.89947 | 34190 ft | 414 kts | 285° |
| 2026-04-15 12:17 | 50.85085 | 4.81214 | 34191 ft | 414 kts | 284° |
| 2026-04-15 12:17 | 50.86724 | 4.72524 | 34192 ft | 414 kts | 284° |
| 2026-04-15 12:18 | 50.88374 | 4.63759 | 34195 ft | 414 kts | 284° |
| 2026-04-15 12:18 | 50.90052 | 4.55040 | 34199 ft | 415 kts | 289° |
| 2026-04-15 12:19 | 50.92849 | 4.47017 | 34187 ft | 419 kts | 298° |
| 2026-04-15 12:19 | 50.95892 | 4.39097 | 34182 ft | 420 kts | 298° |
| 2026-04-15 12:20 | 50.98920 | 4.31186 | 34180 ft | 420 kts | 297° |
| 2026-04-15 12:20 | 51.01954 | 4.23236 | 34186 ft | 420 kts | 297° |
| 2026-04-15 12:21 | 51.04984 | 4.15273 | 34171 ft | 421 kts | 297° |
| 2026-04-15 12:21 | 51.08004 | 4.07311 | 34167 ft | 421 kts | 297° |
| 2026-04-15 12:22 | 51.10515 | 4.00673 | 34151 ft | 421 kts | 297° |
| 2026-04-15 12:22 | 51.13512 | 3.92728 | 34147 ft | 421 kts | 297° |
| 2026-04-15 12:23 | 51.16522 | 3.84720 | 34143 ft | 421 kts | 296° |
| 2026-04-15 12:23 | 51.20020 | 3.75386 | 34139 ft | 421 kts | 296° |
| 2026-04-15 12:24 | 51.22507 | 3.68707 | 34139 ft | 421 kts | 294° |
| 2026-04-15 12:24 | 51.23679 | 3.64464 | 34145 ft | 415 kts | 283° |
| 2026-04-15 12:24 | 51.24378 | 3.60017 | 34135 ft | 412 kts | 278° |
| 2026-04-15 12:25 | 51.25574 | 3.51053 | 34138 ft | 413 kts | 278° |
| 2026-04-15 12:25 | 51.26759 | 3.42083 | 34134 ft | 412 kts | 278° |
| 2026-04-15 12:26 | 51.27918 | 3.33163 | 34137 ft | 413 kts | 277° |
| 2026-04-15 12:26 | 51.29068 | 3.24179 | 34134 ft | 413 kts | 277° |
| 2026-04-15 12:27 | 51.30220 | 3.15173 | 34135 ft | 413 kts | 277° |
| 2026-04-15 12:27 | 51.31353 | 3.06225 | 34135 ft | 413 kts | 276° |
| 2026-04-15 12:28 | 51.32488 | 2.97218 | 34138 ft | 412 kts | 276° |
| 2026-04-15 12:28 | 51.33614 | 2.88223 | 34136 ft | 412 kts | 276° |
| 2026-04-15 12:29 | 51.34732 | 2.79228 | 34134 ft | 412 kts | 276° |
| 2026-04-15 12:29 | 51.35838 | 2.70286 | 34140 ft | 411 kts | 276° |
| 2026-04-15 12:30 | 51.36949 | 2.61287 | 34127 ft | 411 kts | 276° |
| 2026-04-15 12:30 | 51.38049 | 2.52289 | 34115 ft | 412 kts | 275° |
| 2026-04-15 12:31 | 51.39146 | 2.43278 | 34116 ft | 411 kts | 275° |
| 2026-04-15 12:31 | 51.40225 | 2.34340 | 34111 ft | 412 kts | 275° |
| 2026-04-15 12:32 | 51.41305 | 2.25336 | 34109 ft | 412 kts | 275° |
| 2026-04-15 12:32 | 51.42412 | 2.16315 | 34112 ft | 413 kts | 275° |
| 2026-04-15 12:33 | 51.43509 | 2.07295 | 34109 ft | 412 kts | 275° |
| 2026-04-15 12:33 | 51.44593 | 1.98304 | 34104 ft | 413 kts | 274° |
| 2026-04-15 12:34 | 51.45660 | 1.89244 | 34101 ft | 413 kts | 274° |
| 2026-04-15 12:34 | 51.46719 | 1.80157 | 34102 ft | 414 kts | 274° |
| 2026-04-15 12:35 | 51.47765 | 1.71090 | 34094 ft | 413 kts | 274° |
| 2026-04-15 12:35 | 51.48797 | 1.62088 | 34089 ft | 413 kts | 273° |
| 2026-04-15 12:36 | 51.49832 | 1.52991 | 34089 ft | 413 kts | 273° |
| 2026-04-15 12:36 | 51.50859 | 1.43902 | 34085 ft | 414 kts | 273° |
| 2026-04-15 12:37 | 51.51880 | 1.34801 | 34086 ft | 414 kts | 273° |
| 2026-04-15 12:37 | 51.52890 | 1.25735 | 34075 ft | 414 kts | 272° |
| 2026-04-15 12:38 | 51.53897 | 1.16627 | 34073 ft | 414 kts | 272° |
| 2026-04-15 12:38 | 51.54182 | 1.10611 | 34071 ft | 404 kts | 262° |
| 2026-04-15 12:39 | 51.54070 | 1.01595 | 34065 ft | 405 kts | 262° |
| 2026-04-15 12:39 | 51.53957 | 0.92541 | 34063 ft | 405 kts | 262° |
| 2026-04-15 12:40 | 51.53832 | 0.83484 | 34063 ft | 405 kts | 262° |
| 2026-04-15 12:40 | 51.53703 | 0.74419 | 34061 ft | 406 kts | 262° |
| 2026-04-15 12:41 | 51.53565 | 0.65386 | 34052 ft | 406 kts | 262° |
| 2026-04-15 12:41 | 51.53422 | 0.56309 | 34059 ft | 406 kts | 261° |
| 2026-04-15 12:42 | 51.53270 | 0.47236 | 34058 ft | 406 kts | 261° |
| 2026-04-15 12:42 | 51.53123 | 0.38215 | 34054 ft | 407 kts | 263° |
| 2026-04-15 12:43 | 51.53161 | 0.29100 | 34054 ft | 408 kts | 263° |
| 2026-04-15 12:43 | 51.53180 | 0.19973 | 34060 ft | 408 kts | 263° |
| 2026-04-15 12:44 | 51.53202 | 0.10841 | 34061 ft | 408 kts | 262° |
| 2026-04-15 12:44 | 51.53210 | 0.01793 | 34056 ft | 407 kts | 262° |
| 2026-04-15 12:45 | 51.53214 | -0.07221 | 34058 ft | 407 kts | 262° |
| 2026-04-15 12:45 | 51.53210 | -0.16267 | 34057 ft | 407 kts | 262° |
| 2026-04-15 12:46 | 51.53199 | -0.25354 | 34034 ft | 408 kts | 262° |
| 2026-04-15 12:46 | 51.53181 | -0.34478 | 34028 ft | 408 kts | 262° |
| 2026-04-15 12:47 | 51.53157 | -0.43539 | 34032 ft | 408 kts | 261° |
| 2026-04-15 12:47 | 51.53130 | -0.52535 | 33325 ft | 399 kts | 261° |
| 2026-04-15 12:47 | 51.53106 | -0.57020 | 32545 ft | 402 kts | 261° |
| 2026-04-15 12:48 | 51.53083 | -0.61529 | 31776 ft | 404 kts | 261° |
| 2026-04-15 12:48 | 51.53064 | -0.66063 | 31005 ft | 406 kts | 261° |
| 2026-04-15 12:48 | 51.53042 | -0.70563 | 30237 ft | 408 kts | 261° |
| 2026-04-15 12:48 | 51.53015 | -0.75146 | 29300 ft | 411 kts | 261° |
| 2026-04-15 12:49 | 51.52987 | -0.79751 | 28338 ft | 413 kts | 261° |
| 2026-04-15 12:49 | 51.52959 | -0.84376 | 27524 ft | 412 kts | 261° |
| 2026-04-15 12:49 | 51.52930 | -0.88917 | 26753 ft | 410 kts | 261° |
| 2026-04-15 12:49 | 51.52897 | -0.93493 | 25944 ft | 409 kts | 261° |
| 2026-04-15 12:50 | 51.52861 | -0.98049 | 25149 ft | 408 kts | 261° |
| 2026-04-15 12:50 | 51.52825 | -1.02626 | 24351 ft | 407 kts | 261° |
| 2026-04-15 12:50 | 51.52787 | -1.07169 | 23554 ft | 406 kts | 261° |
| 2026-04-15 12:50 | 51.52748 | -1.11706 | 22719 ft | 403 kts | 261° |
| 2026-04-15 12:51 | 51.52784 | -1.16168 | 22149 ft | 399 kts | 267° |
| 2026-04-15 12:51 | 51.53208 | -1.20470 | 21944 ft | 390 kts | 272° |
| 2026-04-15 12:51 | 51.53709 | -1.24696 | 21943 ft | 387 kts | 271° |
| 2026-04-15 12:51 | 51.54204 | -1.29000 | 21955 ft | 395 kts | 272° |
| 2026-04-15 12:52 | 51.54711 | -1.33303 | 21970 ft | 397 kts | 272° |
| 2026-04-15 12:52 | 51.55236 | -1.37699 | 21505 ft | 404 kts | 272° |
| 2026-04-15 12:52 | 51.55758 | -1.42122 | 20839 ft | 400 kts | 272° |
| 2026-04-15 12:52 | 51.56268 | -1.46449 | 20053 ft | 381 kts | 273° |
| 2026-04-15 12:53 | 51.56751 | -1.50565 | 19318 ft | 380 kts | 272° |
| 2026-04-15 12:53 | 51.57224 | -1.54791 | 18602 ft | 384 kts | 273° |
| 2026-04-15 12:53 | 51.57714 | -1.59001 | 17855 ft | 381 kts | 274° |
| 2026-04-15 12:53 | 51.58205 | -1.63164 | 17060 ft | 376 kts | 274° |
| 2026-04-15 12:54 | 51.58610 | -1.67288 | 16291 ft | 368 kts | 270° |
| 2026-04-15 12:54 | 51.58891 | -1.71305 | 15549 ft | 364 kts | 270° |
| 2026-04-15 12:54 | 51.59186 | -1.75340 | 14812 ft | 362 kts | 270° |
| 2026-04-15 12:54 | 51.59482 | -1.79339 | 14097 ft | 359 kts | 270° |
| 2026-04-15 12:55 | 51.59770 | -1.83316 | 13328 ft | 354 kts | 269° |
| 2026-04-15 12:55 | 51.59759 | -1.87197 | 12548 ft | 341 kts | 257° |
| 2026-04-15 12:55 | 51.59239 | -1.90859 | 11789 ft | 330 kts | 246° |
| 2026-04-15 12:55 | 51.58283 | -1.94153 | 11042 ft | 321 kts | 236° |
| 2026-04-15 12:56 | 51.57088 | -1.97152 | 10318 ft | 316 kts | 235° |
| 2026-04-15 12:56 | 51.55917 | -2.00102 | 9565 ft | 312 kts | 235° |
| 2026-04-15 12:56 | 51.54750 | -2.03030 | 8776 ft | 308 kts | 235° |
| 2026-04-15 12:56 | 51.53617 | -2.05863 | 8015 ft | 304 kts | 235° |
| 2026-04-15 12:57 | 51.52428 | -2.08634 | 7260 ft | 299 kts | 232° |
| 2026-04-15 12:57 | 51.51174 | -2.11277 | 6518 ft | 295 kts | 231° |
| 2026-04-15 12:57 | 51.49915 | -2.13852 | 5755 ft | 292 kts | 230° |
| 2026-04-15 12:57 | 51.48665 | -2.16388 | 4991 ft | 289 kts | 230° |
| 2026-04-15 12:58 | 51.47441 | -2.18865 | 4242 ft | 269 kts | 230° |
| 2026-04-15 12:58 | 51.46366 | -2.21071 | 3996 ft | 233 kts | 230° |
| 2026-04-15 12:58 | 51.45388 | -2.23101 | 3558 ft | 225 kts | 230° |
| 2026-04-15 12:58 | 51.44475 | -2.25037 | 3148 ft | 218 kts | 230° |
| 2026-04-15 12:59 | 51.42659 | -2.28917 | 2508 ft | 209 kts | 230° |
| 2026-04-15 12:59 | 51.41828 | -2.30708 | 2502 ft | 192 kts | 230° |
| 2026-04-15 12:59 | 51.41066 | -2.32357 | 2503 ft | 176 kts | 230° |
| 2026-04-15 13:00 | 51.40491 | -2.34004 | 2504 ft | 167 kts | 242° |
| 2026-04-15 13:00 | 51.40051 | -2.35645 | 2496 ft | 156 kts | 240° |
| 2026-04-15 13:00 | 51.39711 | -2.37240 | 2501 ft | 148 kts | 248° |
| 2026-04-15 13:00 | 51.39589 | -2.38856 | 2502 ft | 141 kts | 255° |
| 2026-04-15 13:01 | 51.39506 | -2.40413 | 2501 ft | 140 kts | 256° |
| 2026-04-15 13:01 | 51.39437 | -2.41993 | 2499 ft | 142 kts | 257° |
| 2026-04-15 13:01 | 51.39379 | -2.43537 | 2504 ft | 141 kts | 257° |
| 2026-04-15 13:01 | 51.39319 | -2.45111 | 2492 ft | 139 kts | 256° |
| 2026-04-15 13:02 | 51.39259 | -2.46647 | 2505 ft | 136 kts | 256° |
| 2026-04-15 13:02 | 51.39202 | -2.48138 | 2499 ft | 132 kts | 256° |
| 2026-04-15 13:02 | 51.39144 | -2.49625 | 2503 ft | 136 kts | 256° |
| 2026-04-15 13:02 | 51.39083 | -2.51119 | 2502 ft | 134 kts | 257° |
| 2026-04-15 13:03 | 51.39028 | -2.52609 | 2513 ft | 135 kts | 258° |
| 2026-04-15 13:03 | 51.38958 | -2.54115 | 2502 ft | 138 kts | 257° |
| 2026-04-15 13:03 | 51.38900 | -2.55627 | 2496 ft | 135 kts | 258° |
| 2026-04-15 13:03 | 51.38839 | -2.57144 | 2345 ft | 139 kts | 257° |
| 2026-04-15 13:04 | 51.38781 | -2.58680 | 2151 ft | 137 kts | 256° |
| 2026-04-15 13:04 | 51.38724 | -2.60181 | 1952 ft | 132 kts | 255° |
| 2026-04-15 13:04 | 51.38670 | -2.61639 | 1786 ft | 132 kts | 255° |
| 2026-04-15 13:04 | 51.38610 | -2.63133 | 1605 ft | 137 kts | 255° |
| 2026-04-15 13:05 | 51.38545 | -2.64665 | 1409 ft | 139 kts | 257° |
| 2026-04-15 13:05 | 51.38488 | -2.66213 | 1208 ft | 142 kts | 256° |
| 2026-04-15 13:05 | 51.38429 | -2.67784 | 990 ft | 138 kts | 258° |
| 2026-04-15 13:05 | 51.38375 | -2.69342 | 738 ft | 140 kts | 255° |
| 2026-04-15 13:06 | 51.38318 | -2.70879 | 629 ft | 134 kts | 256° |
| 2026-04-15 13:06 | 51.38253 | -2.72148 | 645 ft | 86 kts | 271° |
| 2026-04-15 13:06 | 51.38230 | -2.72829 | 633 ft | 52 kts | 267° |
| 2026-04-15 13:06 | 51.38217 | -2.73214 | 638 ft | 15 kts | 268° |
| 2026-04-15 13:07 | 51.38232 | -2.73307 | 637 ft | 8 kts | 314° |
| 2026-04-15 13:07 | 51.38337 | -2.73339 | 628 ft | 24 kts | 15° |
| 2026-04-15 13:07 | 51.38398 | -2.73246 | 624 ft | 8 kts | 95° |
| 2026-04-15 13:07 | 51.38390 | -2.73120 | 628 ft | 14 kts | 90° |
| 2026-04-15 13:08 | 51.38393 | -2.72976 | 630 ft | 12 kts | 86° |
| 2026-04-15 13:08 | 51.38399 | -2.72843 | 631 ft | 13 kts | 87° |
| 2026-04-15 13:08 | 51.38403 | -2.72694 | 634 ft | 14 kts | 85° |
| 2026-04-15 13:08 | 51.38406 | -2.72530 | 639 ft | 14 kts | 88° |
| 2026-04-15 13:09 | 51.38417 | -2.72362 | 631 ft | 17 kts | 85° |
| 2026-04-15 13:09 | 51.38425 | -2.72169 | 638 ft | 18 kts | 86° |
| 2026-04-15 13:09 | 51.38428 | -2.72024 | 630 ft | 21 kts | 90° |
| 2026-04-15 13:09 | 51.38430 | -2.71818 | 630 ft | 16 kts | 89° |
| 2026-04-15 13:10 | 51.38439 | -2.71705 | 628 ft | 7 kts | 59° |
| 2026-04-15 13:10 | 51.38456 | -2.71679 | 632 ft | 0 kts | 24° |
| 2026-04-15 13:10 | 51.38465 | -2.71674 | 627 ft | 2 kts | 18° |
| 2026-04-15 13:10 | 51.38471 | -2.71671 | 628 ft | 1 kts | 13° |
| 2026-04-15 13:11 | 51.38482 | -2.71669 | 630 ft | 0 kts | 3° |
| 2026-04-15 13:11 | 51.38485 | -2.71669 | 624 ft | 2 kts | 354° |
| 2026-04-15 13:11 | 51.38511 | -2.71673 | 625 ft | 6 kts | 355° |
| 2026-04-15 13:11 | 51.38539 | -2.71676 | 625 ft | 0 kts | 356° |